Home > Products > Valid Products > TAF

000
FTUS45 KREV 191100
TAFRNO
TAF
KRNO 191120Z 1912/2012 VRB03KT P6SM SCT200
     FM192000 27015G25KT P6SM FEW080 SCT200
     FM200500 VRB03KT P6SM SKC=



000
FTUS45 KREV 190500
TAFRNO
TAF
KRNO 190520Z 1906/2006 VRB03KT P6SM SCT080 SCT200
     FM192000 27015G25KT P6SM FEW080 SCT200
     FM200400 30011KT P6SM SCT200=



000
FTUS45 KREV 190100 AAA
TAFRNO
TAF AMD
KRNO 190140Z 1902/1924 30010G18KT P6SM VCSH SCT070 BKN100
     FM190400 32009KT P6SM BKN070
     FM190600 VRB03KT P6SM SCT070
     FM192000 24012G22KT P6SM SCT100=



000
FTUS45 KREV 182300
TAFRNO
TAF
KRNO 182320Z 1900/1924 31009KT P6SM VCSH SCT060 BKN100
     FM190500 VRB03KT P6SM SCT060
     FM192000 24012G22KT P6SM SCT100=



000
FTUS45 KREV 181700
TAFRNO
TAF
KRNO 181720Z 1818/1918 VRB04KT P6SM FEW040 SCT120 SCT180
     FM182200 31009KT P6SM VCSH SCT060 BKN100
     FM190500 VRB03KT P6SM SCT060=



000
FTUS45 KREV 181100
TAFRNO
TAF
KRNO 181120Z 1812/1912 36010KT P6SM SCT140 BKN180
     FM181600 VRB04KT P6SM SCT180
     FM182200 31009KT P6SM VCSH SCT060 BKN100
     FM190500 VRB03KT P6SM SCT060=



000
FTUS45 KREV 181000 AAA
TAFRNO
TAF AMD
KRNO 181047Z 1811/1906 36010KT P6SM SCT080 BKN150
     FM181600 VRB04KT P6SM SCT080 SCT150
     FM182300 31009KT P6SM VCSH BKN060
     FM190500 VRB03KT P6SM SCT060=



000
FTUS45 KREV 180500
TAFRNO
TAF
KRNO 180520Z 1806/1906 VRB03KT P6SM SCT080 BKN150
     FM181800 10006KT P6SM SCT080 SCT150
     FM182300 31009KT P6SM VCSH BKN060
     FM190500 VRB03KT P6SM SCT060=



000
FTUS45 KREV 172300
TAFRNO
TAF
KRNO 172328Z 1800/1824 27015G27KT P6SM FEW080 BKN200
     FM180500 31011KT P6SM BKN150
     FM180900 VRB03KT P6SM BKN150
     FM182000 33007KT P6SM SCT040 BKN120=



000
FTUS45 KREV 171700
TAFRNO
TAF
KRNO 171722Z 1718/1818 VRB04KT P6SM FEW250
     FM172100 27015G27KT P6SM SCT200
     FM180500 31008KT P6SM BKN140=



000
FTUS45 KREV 171100
TAFRNO
TAF
KRNO 171120Z 1712/1812 VRB04KT P6SM SKC
     FM171800 20010G17KT P6SM FEW200
     FM172200 27015G25KT P6SM FEW150 SCT200
     FM180500 29010KT P6SM SCT080 BKN140=



000
FTUS45 KREV 170500
TAFRNO
TAF
KRNO 170520Z 1706/1806 VRB03KT P6SM SKC
     FM171800 20010KT P6SM FEW200
     FM172000 24015G25KT P6SM SCT150 SCT200
     FM180500 29010KT P6SM SCT080 BKN140=



000
FTUS45 KREV 162300
TAFRNO
TAF
KRNO 162320Z 1700/1724 36007KT P6SM SCT200
     FM170500 VRB03KT P6SM FEW200
     FM172000 24013G23KT P6SM SCT150=



000
FTUS45 KREV 161700
TAFRNO
TAF
KRNO 161720Z 1618/1718 VRB04KT P6SM FEW200
     FM162000 36007KT P6SM FEW200
     FM170500 VRB03KT P6SM SKC=



    US Dept of Commerce
    National Oceanic and Atmospheric Administration
    National Weather Service
    1325 East West Highway
    Silver Spring, MD 20910
    Page Author: NWS Internet Services Team
Disclaimer
Information Quality
Credits
Glossary
Privacy Policy
Freedom of Information Act (FOIA)
About Us
Career Opportunities